Indianapolis, Indiana
Traffic Map
Current Weather Conditions
Indianapolis, Indiana
Overcast
Overcast
49°
Feels Like: 45°
Wind Chill: 45° Ceiling: 9000
Heat Index: 49° Visibility: 10mi
Dew Point: 44° Wind: 10mph
Humidity: 83% Direction: 200° (SSW)
Pressure: 29.95in Gusts: 0mph
Raw Report DataKIND 201054Z 20009KT 10SM OVC090 09/07 A2995 RMK AO2 RAE05 SLP144 P0001 T00940067
Traffic Incident Summary
Active as of:
Severity:
Category:
InformationThere was an issue retrieving the traffic information for this location. Please try a different location or try again shortly.
Advertisements
Track Severe Weather on mobile